Time;durP1;ratioP1;P1;durP2;ratioP2;P2;SDS_P1;SDS_P2;PMS_P1;PMS_P2;Temp;Humidity;BMP_temperature;BMP_pressure;BME280_temperature;BME280_humidity;BME280_pressure;Samples;Min_cycle;Max_cycle;Signal;HPM_P1;HPM_P2
2021/10/07 07:48:56;;;;;;;7.20;5.13;;;;;;;12.52;74.00;100863.03;1089156;46;20090;-75
2021/10/07 07:50:00;;;;;;;9.15;5.85;;;;;;;12.52;74.36;100862.16;1087652;54;20031;-79
2021/10/07 07:51:03;;;;;;;7.03;4.70;;;;;;;12.66;74.41;100863.63;1087707;54;20037;-79
2021/10/07 07:52:08;;;;;;;8.98;6.13;;;;;;;12.61;74.06;100872.09;1087653;54;20098;-76
2021/10/07 07:53:10;;;;;;;8.57;6.18;;;;;;;12.62;74.30;100863.91;1087646;54;20061;-79
2021/10/07 07:54:14;;;;;;;8.88;6.75;;;;;;;12.53;74.30;100864.72;1087777;46;20042;-77
2021/10/07 07:55:18;;;;;;;8.77;6.10;;;;;;;12.51;74.38;100868.53;1087821;46;20038;-77
2021/10/07 07:56:20;;;;;;;9.63;5.53;;;;;;;12.72;74.07;100868.44;1087639;54;20792;-76
2021/10/07 07:57:24;;;;;;;6.80;4.95;;;;;;;12.86;73.61;100864.50;1087432;54;20045;-76
2021/10/07 07:58:25;;;;;;;6.88;4.95;;;;;;;12.84;73.80;100861.97;1087594;54;20061;-77
2021/10/07 07:59:29;;;;;;;8.90;5.05;;;;;;;12.89;73.36;100859.69;1087617;54;20034;-76
2021/10/07 08:00:31;;;;;;;5.80;4.40;;;;;;;13.02;73.03;100863.94;1087559;54;20034;-77
2021/10/07 08:01:36;;;;;;;7.15;4.82;;;;;;;13.00;72.95;100866.75;1087521;54;20035;-76
2021/10/07 08:02:38;;;;;;;8.95;5.45;;;;;;;13.06;73.16;100865.34;1087641;54;20046;-76
2021/10/07 08:03:42;;;;;;;7.20;4.63;;;;;;;13.15;73.01;100869.03;1087561;54;20038;-77
2021/10/07 08:04:46;;;;;;;8.00;6.13;;;;;;;13.09;72.94;100859.72;1087633;54;20038;-77
2021/10/07 08:05:50;;;;;;;10.52;5.50;;;;;;;13.11;72.90;100869.31;1087520;54;20036;-76
2021/10/07 08:06:52;;;;;;;7.47;5.20;;;;;;;13.14;72.86;100868.16;1087601;54;20030;-76
2021/10/07 08:07:56;;;;;;;9.70;6.05;;;;;;;13.09;72.81;100860.53;1087584;54;20031;-76
2021/10/07 08:08:58;;;;;;;8.90;6.30;;;;;;;13.11;72.71;100863.09;1087584;54;20034;-76
2021/10/07 08:10:02;;;;;;;9.55;5.97;;;;;;;13.11;72.95;100865.78;1087650;54;20034;-78
2021/10/07 08:11:06;;;;;;;9.02;5.90;;;;;;;12.94;73.00;100872.69;1087458;54;20038;-77
2021/10/07 08:12:07;;;;;;;8.60;6.00;;;;;;;12.89;73.47;100872.28;1087621;54;20031;-77
2021/10/07 08:13:12;;;;;;;10.10;5.57;;;;;;;13.10;72.80;100870.28;1087619;54;20041;-77
2021/10/07 08:14:16;;;;;;;9.43;5.97;;;;;;;13.13;73.08;100869.16;1088169;47;20042;-78
2021/10/07 08:15:18;;;;;;;10.25;5.07;;;;;;;13.33;72.35;100872.69;1087423;54;20030;-77
2021/10/07 08:16:22;;;;;;;7.32;4.93;;;;;;;13.48;72.09;100870.44;1087501;54;20070;-77
2021/10/07 08:17:24;;;;;;;8.43;4.50;;;;;;;13.58;71.78;100875.78;1087418;54;20053;-76
2021/10/07 08:18:28;;;;;;;6.90;4.60;;;;;;;13.57;71.43;100874.97;1088296;47;20034;-77
2021/10/07 08:19:29;;;;;;;8.30;5.15;;;;;;;13.46;71.67;100876.97;1087533;54;20038;-78
2021/10/07 08:20:38;;;;;;;7.43;4.70;;;;;;;13.66;71.27;100872.41;1087718;39;20650;-77
2021/10/07 08:21:41;;;;;;;8.35;4.50;;;;;;;13.40;71.63;100867.63;1087611;54;20038;-77
2021/10/07 08:22:47;;;;;;;7.07;4.45;;;;;;;13.49;71.15;100871.28;1087451;54;20030;-77
2021/10/07 08:23:49;;;;;;;8.68;4.90;;;;;;;13.30;71.62;100872.13;1087564;54;20075;-78
2021/10/07 08:24:53;;;;;;;6.40;4.45;;;;;;;13.43;71.47;100875.38;1088122;39;20362;-78
2021/10/07 08:25:57;;;;;;;7.55;4.63;;;;;;;13.54;70.71;100875.25;1087581;54;20031;-77
2021/10/07 08:26:59;;;;;;;8.63;4.88;;;;;;;13.60;70.55;100881.88;1087584;54;20111;-77
2021/10/07 08:28:03;;;;;;;10.05;4.32;;;;;;;13.47;70.96;100884.88;1087580;54;20042;-77
2021/10/07 08:29:05;;;;;;;7.15;3.92;;;;;;;13.50;70.76;100889.09;1087423;54;20031;-76
2021/10/07 08:30:12;;;;;;;7.47;4.35;;;;;;;13.39;70.69;100887.44;1087571;54;20037;-77
2021/10/07 08:31:14;;;;;;;7.30;3.88;;;;;;;13.50;70.47;100897.16;1087591;54;20061;-78
2021/10/07 08:32:18;;;;;;;6.70;4.18;;;;;;;13.56;70.27;100884.00;1087600;54;20085;-77
2021/10/07 08:33:22;;;;;;;5.38;3.72;;;;;;;13.65;70.40;100884.13;1087638;54;20034;-77
2021/10/07 08:34:26;;;;;;;5.53;3.30;;;;;;;13.71;70.21;100878.16;1087429;54;20041;-78
2021/10/07 08:35:29;;;;;;;8.23;5.72;;;;;;;13.69;70.17;100890.94;1087599;54;20034;-77
2021/10/07 08:36:42;;;;;;;10.68;6.43;;;;;;;13.79;69.43;100880.97;1087572;54;20067;-76
2021/10/07 08:37:47;;;;;;;14.20;10.27;;;;;;;13.78;69.54;100886.50;1087582;54;20034;-77
2021/10/07 08:38:48;;;;;;;13.70;10.27;;;;;;;13.82;69.74;100888.75;1087542;54;20098;-76
2021/10/07 08:39:52;;;;;;;12.55;9.13;;;;;;;13.87;69.76;100883.81;1087428;54;20031;-76
2021/10/07 08:40:57;;;;;;;12.73;7.53;;;;;;;13.71;70.06;100891.59;1087595;54;20041;-76
2021/10/07 08:41:59;;;;;;;9.55;6.00;;;;;;;13.48;70.31;100896.44;1088502;39;20637;-77
2021/10/07 08:43:04;;;;;;;8.52;5.38;;;;;;;13.42;70.69;100887.13;1087645;54;20042;-77
2021/10/07 08:44:06;;;;;;;8.25;5.00;;;;;;;13.41;70.38;100886.28;1087515;54;20054;-77
2021/10/07 08:45:12;;;;;;;9.13;4.72;;;;;;;13.51;70.20;100886.25;1087622;54;20035;-78
2021/10/07 08:46:16;;;;;;;6.55;4.20;;;;;;;13.46;70.25;100883.16;1087375;54;20809;-77
2021/10/07 08:47:19;;;;;;;5.93;4.25;;;;;;;13.53;70.26;100892.34;1087579;54;20041;-77
2021/10/07 08:48:23;;;;;;;7.15;4.32;;;;;;;13.44;70.48;100889.69;1087549;54;20031;-77
2021/10/07 08:49:35;;;;;;;7.70;4.50;;;;;;;13.25;70.51;100892.19;1087233;54;20031;-76
2021/10/07 08:50:37;;;;;;;6.00;4.53;;;;;;;13.29;70.70;100897.28;1087626;54;20713;-76
2021/10/07 08:51:44;;;;;;;8.07;4.78;;;;;;;13.29;70.31;100898.13;1087425;54;20098;-76
2021/10/07 08:52:49;;;;;;;9.73;5.18;;;;;;;13.19;70.65;100894.59;1087606;54;20030;-77
2021/10/07 08:53:53;;;;;;;8.32;4.70;;;;;;;13.18;70.39;100893.75;1087601;54;20045;-76
2021/10/07 08:54:55;;;;;;;7.22;4.32;;;;;;;13.35;69.81;100888.66;1087636;47;20986;-76
2021/10/07 08:56:01;;;;;;;6.10;4.03;;;;;;;13.48;69.46;100886.56;1087625;54;20027;-76
2021/10/07 08:57:04;;;;;;;7.95;4.00;;;;;;;13.37;69.49;100894.75;1087422;54;20070;-77
2021/10/07 08:58:08;;;;;;;5.63;4.20;;;;;;;13.32;69.46;100889.78;1087844;54;20038;-77
2021/10/07 08:59:09;;;;;;;6.68;3.90;;;;;;;13.31;69.26;100885.41;1087808;54;20038;-76
2021/10/07 09:00:16;;;;;;;5.57;3.65;;;;;;;13.43;69.20;100891.50;1087938;54;20026;-77
2021/10/07 09:01:36;;;;;;;5.65;3.60;;;;;;;13.54;68.49;100885.97;1087905;54;20030;-76
2021/10/07 09:02:40;;;;;;;6.65;4.00;;;;;;;13.62;68.79;100893.34;1087782;54;20035;-76
2021/10/07 09:03:42;;;;;;;5.47;3.40;;;;;;;13.74;68.49;100888.63;1087886;54;20027;-76
2021/10/07 09:04:46;;;;;;;5.93;3.63;;;;;;;13.82;68.22;100880.69;1088605;46;20064;-77
2021/10/07 09:05:48;;;;;;;6.13;3.55;;;;;;;13.79;68.43;100893.56;1087904;54;20034;-79
2021/10/07 09:06:58;;;;;;;5.75;3.58;;;;;;;13.86;68.00;100879.41;1087957;54;20037;-76
2021/10/07 09:08:02;;;;;;;5.35;3.25;;;;;;;13.91;68.02;100881.66;1087833;54;20106;-77
2021/10/07 09:09:06;;;;;;;5.28;3.60;;;;;;;13.93;67.91;100881.50;1087742;54;20054;-76
2021/10/07 09:10:08;;;;;;;5.90;3.53;;;;;;;13.99;67.88;100881.78;1088238;47;20034;-76
2021/10/07 09:11:13;;;;;;;5.32;3.50;;;;;;;13.98;68.03;100876.56;1087878;54;20074;-78
2021/10/07 09:12:16;;;;;;;5.70;3.20;;;;;;;14.01;67.61;100881.63;1087931;54;20038;-78
2021/10/07 09:13:22;;;;;;;5.60;3.35;;;;;;;14.14;67.67;100881.28;1088154;46;20064;-77
2021/10/07 09:14:26;;;;;;;4.82;2.80;;;;;;;14.19;67.50;100892.47;1087749;54;20054;-77
2021/10/07 09:15:31;;;;;;;5.07;2.65;;;;;;;14.29;67.08;100884.34;1087681;54;20034;-76
2021/10/07 09:16:44;;;;;;;5.78;2.92;;;;;;;14.28;66.98;100882.63;1087964;54;20030;-76
2021/10/07 09:17:53;;;;;;;5.20;2.80;;;;;;;14.29;66.35;100887.03;1087948;54;20031;-77
2021/10/07 09:18:54;;;;;;;4.82;2.85;;;;;;;14.35;66.89;100889.16;1087977;54;20037;-77
2021/10/07 09:19:59;;;;;;;6.10;3.20;;;;;;;14.39;66.71;100885.13;1088011;54;20018;-77
2021/10/07 09:21:03;;;;;;;4.13;2.63;;;;;;;14.44;66.24;100876.63;1088056;54;20033;-77
2021/10/07 09:22:19;;;;;;;4.60;2.72;;;;;;;14.45;65.89;100889.06;1088065;54;20061;-76
2021/10/07 09:23:26;;;;;;;4.95;2.78;;;;;;;14.48;66.10;100884.25;1087986;54;20034;-76
2021/10/07 09:24:34;;;;;;;4.68;2.83;;;;;;;14.44;65.54;100888.25;1089080;46;20030;-79
2021/10/07 09:26:00;;;;;;;5.22;2.90;;;;;;;14.44;65.68;100888.25;1087917;54;20034;-79
2021/10/07 09:27:05;;;;;;;6.88;3.45;;;;;;;14.37;66.23;100887.13;1088103;54;20042;-77
2021/10/07 09:28:09;;;;;;;5.72;2.63;;;;;;;14.48;66.22;100878.88;1087947;54;20031;-77
2021/10/07 09:29:11;;;;;;;6.75;2.83;;;;;;;14.59;65.81;100883.22;1087897;54;20041;-77
2021/10/07 09:30:15;;;;;;;6.03;3.53;;;;;;;14.60;65.62;100886.72;1087908;54;20046;-78
2021/10/07 09:31:23;;;;;;;6.85;3.55;;;;;;;14.64;65.63;100888.13;1087827;46;20042;-77
2021/10/07 09:32:30;;;;;;;5.57;3.00;;;;;;;14.76;65.34;100886.94;1087858;54;20788;-78
2021/10/07 09:33:37;;;;;;;4.85;3.05;;;;;;;14.85;64.93;100889.72;1087878;54;20041;-78
2021/10/07 09:34:51;;;;;;;6.05;3.75;;;;;;;14.51;64.38;100889.34;1087878;54;20048;-77
2021/10/07 09:36:11;;;;;;;7.50;4.32;;;;;;;14.29;65.00;100892.41;1087962;47;20019;-77
2021/10/07 09:37:33;;;;;;;6.80;4.47;;;;;;;14.27;65.25;100891.69;1088126;46;20038;-76
2021/10/07 09:38:34;;;;;;;7.25;3.83;;;;;;;14.33;65.74;100889.28;1087744;54;20169;-76
2021/10/07 09:39:39;;;;;;;5.80;3.15;;;;;;;14.57;65.03;100887.03;1087826;54;20092;-76
2021/10/07 09:40:44;;;;;;;5.00;3.35;;;;;;;14.71;64.84;100883.88;1089019;39;21047;-77
2021/10/07 09:41:46;;;;;;;6.50;3.78;;;;;;;14.96;64.29;100881.41;1087798;54;20038;-77
2021/10/07 09:42:51;;;;;;;6.50;4.70;;;;;;;15.18;63.89;100884.66;1087638;54;20031;-77
2021/10/07 09:43:56;;;;;;;6.28;4.55;;;;;;;15.32;63.26;100889.47;1087746;54;20030;-76
2021/10/07 09:45:16;;;;;;;6.03;3.95;;;;;;;15.37;62.13;100881.81;1087836;54;20037;-76
2021/10/07 09:46:39;;;;;;;6.03;4.15;;;;;;;15.45;62.06;100891.78;1087866;54;20065;-77
2021/10/07 09:47:45;;;;;;;7.15;4.45;;;;;;;15.49;62.79;100886.94;1087791;54;21422;-78
2021/10/07 09:48:50;;;;;;;7.40;4.38;;;;;;;15.41;62.30;100882.34;1087722;54;20042;-76
2021/10/07 09:49:56;;;;;;;15.80;4.80;;;;;;;15.42;62.70;100884.84;1087552;54;20077;-76
2021/10/07 09:51:00;;;;;;;6.60;4.20;;;;;;;15.56;62.55;100888.00;1087836;54;20038;-77
2021/10/07 09:52:05;;;;;;;5.60;3.65;;;;;;;15.80;62.11;100883.78;1089286;39;20962;-78
2021/10/07 09:53:14;;;;;;;7.22;4.00;;;;;;;15.89;61.81;100877.47;1087811;54;20039;-77
2021/10/07 09:54:17;;;;;;;6.50;4.20;;;;;;;15.87;61.88;100880.31;1087627;54;20026;-77
2021/10/07 09:55:23;;;;;;;6.78;4.30;;;;;;;15.71;62.54;100885.59;1087794;54;20030;-77
2021/10/07 09:56:29;;;;;;;7.60;5.22;;;;;;;15.61;62.42;100880.28;1087798;54;20037;-76
2021/10/07 09:57:34;;;;;;;7.20;5.03;;;;;;;15.55;62.92;100880.91;1087847;54;20090;-76
2021/10/07 09:58:45;;;;;;;6.57;4.55;;;;;;;15.56;62.51;100875.38;1087699;54;20061;-76
2021/10/07 09:59:56;;;;;;;6.47;4.13;;;;;;;15.59;62.49;100880.44;1091230;39;20560;-77
2021/10/07 10:01:00;;;;;;;;;;;;;;;15.46;62.80;100880.00;1087970;54;20030;-76
2021/10/07 10:02:02;;;;;;;6.35;4.30;;;;;;;15.69;62.92;100884.91;1088623;46;19946;-76
2021/10/07 10:03:08;;;;;;;6.18;4.05;;;;;;;15.76;62.42;100877.84;1087842;54;20166;-77
2021/10/07 10:04:10;;;;;;;10.68;5.57;;;;;;;15.33;63.00;100885.78;1087748;54;20045;-77
2021/10/07 10:05:14;;;;;;;7.47;5.30;;;;;;;15.55;63.16;100880.91;1087621;54;20031;-76
2021/10/07 10:06:19;;;;;;;7.53;5.07;;;;;;;15.38;63.12;100883.50;1087741;54;20094;-76
2021/10/07 10:07:20;;;;;;;9.75;5.53;;;;;;;14.94;63.62;100884.28;1087807;54;20058;-75
2021/10/07 10:08:28;;;;;;;8.10;5.47;;;;;;;14.87;64.08;100885.91;1087737;54;20030;-77
2021/10/07 10:09:32;;;;;;;7.32;5.13;;;;;;;14.80;64.25;100885.66;1087712;54;20034;-81
2021/10/07 10:10:37;;;;;;;11.65;5.97;;;;;;;14.62;64.93;100890.97;1087700;54;20042;-77
2021/10/07 10:11:40;;;;;;;12.88;5.68;;;;;;;14.66;64.80;100886.13;1087745;54;21393;-77
2021/10/07 10:12:45;;;;;;;7.35;5.22;;;;;;;14.95;64.17;100888.66;1087860;54;20045;-77
2021/10/07 10:13:48;;;;;;;8.32;5.13;;;;;;;15.11;63.40;100887.94;1087748;54;20037;-76
2021/10/07 10:14:53;;;;;;;7.38;5.32;;;;;;;14.92;63.81;100883.56;1087833;54;20037;-77
2021/10/07 10:15:57;;;;;;;8.88;5.20;;;;;;;14.91;63.83;100879.19;1087551;54;21085;-77
2021/10/07 10:16:59;;;;;;;8.25;5.35;;;;;;;14.90;63.91;100888.25;1087633;54;20042;-79
2021/10/07 10:18:07;;;;;;;7.32;5.20;;;;;;;15.20;63.58;100883.50;1087832;54;20054;-76
2021/10/07 10:19:11;;;;;;;7.60;5.10;;;;;;;15.02;63.58;100888.88;1088973;46;20296;-75
2021/10/07 10:20:19;;;;;;;7.78;5.60;;;;;;;15.02;63.33;100886.19;1087821;54;20030;-76
2021/10/07 10:21:25;;;;;;;10.77;5.60;;;;;;;15.16;63.24;100882.09;1087786;54;20090;-76
2021/10/07 10:22:27;;;;;;;7.88;5.60;;;;;;;15.48;62.78;100885.25;1087655;54;20030;-76
2021/10/07 10:23:39;;;;;;;9.13;5.18;;;;;;;15.71;61.37;100880.19;1090159;39;20586;-76
2021/10/07 10:24:41;;;;;;;8.10;5.47;;;;;;;15.85;61.43;100876.09;1087794;54;20037;-77
2021/10/07 10:25:56;;;;;;;9.35;5.20;;;;;;;15.74;61.23;100883.41;1087769;54;20030;-78
2021/10/07 10:27:02;;;;;;;6.70;5.25;;;;;;;15.48;61.94;100877.16;1087907;54;20026;-76
2021/10/07 10:28:07;;;;;;;7.45;5.40;;;;;;;15.42;62.18;100878.63;1087603;54;20030;-77
2021/10/07 10:29:22;;;;;;;6.43;4.25;;;;;;;15.73;61.14;100881.72;1087754;54;20121;-77
2021/10/07 10:30:44;;;;;;;7.50;4.32;;;;;;;15.94;60.90;100869.75;1089526;39;20316;-77
2021/10/07 10:31:53;;;;;;;6.32;4.07;;;;;;;16.11;60.61;100876.06;1087780;54;20026;-77
2021/10/07 10:32:59;;;;;;;5.63;3.88;;;;;;;16.21;60.23;100871.38;1087750;54;20035;-76
2021/10/07 10:34:09;;;;;;;7.05;5.13;;;;;;;16.24;59.95;100872.09;1090331;39;20705;-76
2021/10/07 10:35:32;;;;;;;7.20;4.70;;;;;;;16.57;59.39;100874.91;1087802;54;20065;-76
2021/10/07 10:36:39;;;;;;;5.70;4.00;;;;;;;16.92;59.12;100872.97;1087706;54;20047;-75
2021/10/07 10:37:58;;;;;;;8.35;3.90;;;;;;;17.26;57.66;100869.31;1087712;54;20042;-77
2021/10/07 10:39:09;;;;;;;5.82;3.67;;;;;;;17.49;57.42;100863.22;1087598;54;20110;-75
2021/10/07 10:40:14;;;;;;;5.22;3.53;;;;;;;17.72;57.20;100872.31;1087817;54;20054;-75
2021/10/07 10:41:20;;;;;;;8.02;4.13;;;;;;;17.95;56.07;100868.88;1087696;54;20018;-75
2021/10/07 10:42:27;;;;;;;5.93;3.53;;;;;;;18.07;55.85;100869.38;1087813;54;20029;-77
2021/10/07 10:43:36;;;;;;;6.75;3.60;;;;;;;18.28;54.58;100874.19;1087780;54;20764;-75
2021/10/07 10:44:49;;;;;;;5.68;4.00;;;;;;;18.16;53.15;100868.31;1087730;54;20048;-76
2021/10/07 10:46:17;;;;;;;6.75;3.70;;;;;;;18.23;53.37;100874.72;1087737;54;20061;-75
2021/10/07 10:47:30;;;;;;;7.95;3.55;;;;;;;18.63;53.93;100866.59;1087797;54;20039;-75
2021/10/07 10:49:07;;;;;;;6.80;4.10;;;;;;;18.60;52.41;100871.53;1087680;54;20714;-77
2021/10/07 10:50:14;;;;;;;5.22;3.25;;;;;;;18.79;52.64;100868.38;1087085;54;20030;-76
2021/10/07 10:51:16;;;;;;;4.82;3.42;;;;;;;18.80;53.19;100871.91;1087145;54;20026;-75
2021/10/07 10:52:23;;;;;;;6.20;3.17;;;;;;;18.75;52.59;100869.75;1087377;54;20066;-76
2021/10/07 10:53:27;;;;;;;4.60;2.65;;;;;;;18.73;53.07;100873.66;1087435;54;20053;-75
2021/10/07 10:54:45;;;;;;;5.00;3.20;;;;;;;18.39;52.64;100870.28;1087586;46;20141;-76
2021/10/07 10:55:52;;;;;;;4.90;3.03;;;;;;;18.36;53.23;100870.63;1087456;54;20069;-76
2021/10/07 10:57:01;;;;;;;4.82;2.80;;;;;;;18.20;52.50;100871.53;1087267;54;20043;-76
2021/10/07 10:58:07;;;;;;;5.00;3.20;;;;;;;18.08;53.82;100874.63;1087393;54;20030;-75
2021/10/07 10:59:20;;;;;;;4.63;2.95;;;;;;;17.84;52.30;100886.31;1087341;54;20038;-76
2021/10/07 11:00:29;;;;;;;4.90;2.95;;;;;;;17.80;53.73;100881.44;1087386;54;20034;-77
2021/10/07 11:01:30;;;;;;;4.63;3.40;;;;;;;17.64;54.41;100890.41;1087776;39;20746;-77
2021/10/07 11:02:35;;;;;;;5.25;3.25;;;;;;;17.49;54.33;100885.69;1088277;46;20822;-77
2021/10/07 11:03:39;;;;;;;4.85;2.92;;;;;;;17.29;54.78;100882.47;1087400;54;20034;-76
2021/10/07 11:04:43;;;;;;;5.97;3.65;;;;;;;16.89;55.40;100882.25;1087347;54;20982;-77
2021/10/07 11:05:59;;;;;;;6.40;3.15;;;;;;;17.00;55.27;100892.75;1087373;54;20754;-75
2021/10/07 11:07:16;;;;;;;4.97;3.38;;;;;;;16.87;55.08;100884.25;1087327;54;20042;-77
2021/10/07 11:08:21;;;;;;;4.90;3.10;;;;;;;16.88;55.53;100887.78;1087095;54;20086;-76
2021/10/07 11:10:05;;;;;;;6.88;3.25;;;;;;;16.78;55.41;100888.78;1087299;54;20094;-78
2021/10/07 11:11:10;;;;;;;5.43;2.92;;;;;;;16.81;55.73;100887.63;1087332;54;20031;-76
2021/10/07 11:12:12;;;;;;;4.97;2.80;;;;;;;16.85;55.85;100883.56;1087351;54;20038;-76
2021/10/07 11:13:17;;;;;;;4.47;3.03;;;;;;;16.69;55.78;100885.25;1087241;54;20026;-76
2021/10/07 11:14:23;;;;;;;4.95;2.97;;;;;;;16.75;56.07;100882.88;1087302;54;20042;-76
2021/10/07 11:15:30;;;;;;;4.20;2.58;;;;;;;16.74;55.72;100891.97;1087080;54;20117;-76
2021/10/07 11:16:33;;;;;;;5.28;3.33;;;;;;;16.68;56.01;100888.94;1087401;54;20034;-77
2021/10/07 11:17:37;;;;;;;5.80;3.38;;;;;;;16.69;56.29;100890.63;1087368;54;20030;-76
2021/10/07 11:18:42;;;;;;;6.05;3.47;;;;;;;16.70;56.27;100894.16;1087354;54;20038;-77
2021/10/07 11:19:44;;;;;;;5.97;3.15;;;;;;;16.65;56.20;100899.22;1087099;54;20034;-77
2021/10/07 11:20:48;;;;;;;6.78;4.03;;;;;;;16.51;56.50;100898.84;1087229;54;20027;-77
2021/10/07 11:22:06;;;;;;;6.93;5.10;;;;;;;16.28;56.56;100893.19;1087872;46;20056;-76
2021/10/07 11:23:13;;;;;;;8.52;4.72;;;;;;;16.29;57.08;100902.13;1087365;54;20030;-76
2021/10/07 11:24:15;;;;;;;7.60;5.05;;;;;;;16.17;57.36;100896.16;1087256;54;20030;-78
2021/10/07 11:25:22;;;;;;;6.95;4.57;;;;;;;16.08;57.23;100897.13;1087163;54;21071;-79
2021/10/07 11:26:31;;;;;;;7.05;4.03;;;;;;;15.93;57.70;100903.13;1087383;54;20023;-77
2021/10/07 11:27:37;;;;;;;6.47;3.70;;;;;;;15.88;57.35;100897.34;1089036;39;20649;-76
2021/10/07 11:28:44;;;;;;;7.07;3.55;;;;;;;15.81;57.89;100897.13;1087648;54;20035;-76
2021/10/07 11:29:50;;;;;;;6.15;3.38;;;;;;;15.71;57.83;100899.91;1087712;54;20034;-77
2021/10/07 11:30:59;;;;;;;5.10;3.25;;;;;;;15.73;58.09;100897.91;1087545;54;20769;-76
2021/10/07 11:32:01;;;;;;;6.05;2.63;;;;;;;15.71;58.25;100897.19;1087659;54;20034;-77
2021/10/07 11:33:06;;;;;;;4.88;2.85;;;;;;;15.67;57.91;100901.22;1087763;54;20050;-77
2021/10/07 11:34:07;;;;;;;4.57;2.55;;;;;;;15.72;57.92;100898.91;1087657;54;20038;-77
2021/10/07 11:35:13;;;;;;;6.43;3.00;;;;;;;15.71;58.19;100899.06;1087779;54;20037;-76
2021/10/07 11:36:20;;;;;;;5.15;3.08;;;;;;;15.66;58.20;100895.97;1087529;54;20030;-77
2021/10/07 11:37:23;;;;;;;6.38;3.20;;;;;;;15.55;58.67;100887.16;1087716;54;20045;-76
2021/10/07 11:38:27;;;;;;;6.32;3.50;;;;;;;15.52;58.72;100890.16;1087700;54;20057;-77
2021/10/07 11:39:29;;;;;;;4.90;2.95;;;;;;;15.59;58.32;100885.84;1087623;54;20264;-77
2021/10/07 11:40:44;;;;;;;4.55;2.50;;;;;;;15.65;58.57;100892.44;1087687;54;20034;-77
2021/10/07 11:41:45;;;;;;;4.68;2.40;;;;;;;15.75;58.17;100879.72;1087577;54;20046;-77
2021/10/07 11:42:49;;;;;;;4.70;2.30;;;;;;;15.88;58.01;100889.25;1087665;54;20687;-78
2021/10/07 11:43:56;;;;;;;4.22;2.28;;;;;;;15.98;58.16;100878.38;1087601;54;20053;-77
2021/10/07 11:44:57;;;;;;;4.70;2.50;;;;;;;16.09;57.71;100883.50;1087650;54;20046;-77
2021/10/07 11:46:03;;;;;;;4.03;2.30;;;;;;;16.13;58.09;100878.63;1087696;54;20027;-77
2021/10/07 11:47:14;;;;;;;5.38;2.70;;;;;;;16.17;57.77;100882.66;1087522;54;20031;-77
2021/10/07 11:48:19;;;;;;;4.15;2.00;;;;;;;16.20;57.72;100885.88;1087510;54;20027;-77
2021/10/07 11:49:21;;;;;;;4.80;2.83;;;;;;;16.21;57.44;100878.66;1087585;54;20035;-77
2021/10/07 11:50:27;;;;;;;5.50;2.85;;;;;;;16.14;57.30;100883.84;1087493;54;20046;-77
2021/10/07 11:51:33;;;;;;;5.50;3.05;;;;;;;16.13;57.41;100884.00;1087622;54;20062;-79
2021/10/07 11:52:36;;;;;;;4.70;2.72;;;;;;;16.16;57.42;100883.66;1087659;54;20062;-78
2021/10/07 11:53:42;;;;;;;4.25;2.45;;;;;;;16.19;57.37;100888.75;1087513;54;20722;-76
2021/10/07 11:54:46;;;;;;;3.80;2.00;;;;;;;16.19;57.53;100886.06;1087705;54;20057;-76
2021/10/07 11:55:53;;;;;;;5.07;2.70;;;;;;;16.13;57.64;100882.16;1087709;54;20042;-78
2021/10/07 11:56:55;;;;;;;4.72;2.67;;;;;;;16.08;57.99;100881.78;1087665;54;20038;-78
2021/10/07 11:58:02;;;;;;;6.25;2.50;;;;;;;16.10;57.91;100878.94;1087671;54;20046;-77
2021/10/07 11:59:07;;;;;;;3.85;2.20;;;;;;;16.14;57.96;100877.63;1087464;54;20049;-76
2021/10/07 12:00:10;;;;;;;4.40;2.30;;;;;;;16.11;58.13;100875.22;1088597;39;20176;-77
2021/10/07 12:01:15;;;;;;;5.70;2.38;;;;;;;16.08;57.66;100875.53;1088369;46;20785;-77
2021/10/07 12:02:16;;;;;;;6.03;2.60;;;;;;;16.04;57.94;100870.50;1087694;54;20045;-75
2021/10/07 12:03:27;;;;;;;6.03;3.00;;;;;;;15.94;57.77;100875.16;1087619;54;20035;-76
2021/10/07 12:04:29;;;;;;;5.47;3.20;;;;;;;15.90;57.86;100868.38;1087493;54;20346;-77
2021/10/07 12:05:35;;;;;;;4.45;2.53;;;;;;;15.95;58.01;100871.44;1087616;54;20037;-77
2021/10/07 12:06:40;;;;;;;6.72;3.33;;;;;;;16.11;57.84;100876.06;1087679;54;20038;-76
2021/10/07 12:07:41;;;;;;;4.75;2.30;;;;;;;16.20;57.62;100863.47;1087625;54;20042;-79
2021/10/07 12:08:48;;;;;;;4.38;2.60;;;;;;;16.22;57.57;100869.56;1089090;39;20688;-78
2021/10/07 12:09:49;;;;;;;4.43;2.10;;;;;;;16.28;57.46;100865.38;1087724;54;20034;-77
2021/10/07 12:10:58;;;;;;;4.07;2.05;;;;;;;16.38;56.93;100861.53;1087457;54;20050;-78
2021/10/07 12:12:04;;;;;;;7.72;2.33;;;;;;;16.40;56.61;100860.50;1087669;54;20034;-83
2021/10/07 12:13:09;;;;;;;4.43;1.75;;;;;;;16.52;56.71;100861.91;1087635;54;20031;-81
2021/10/07 12:14:14;;;;;;;4.30;1.83;;;;;;;16.55;56.43;100861.56;1087602;54;20039;-82
2021/10/07 12:15:16;;;;;;;5.65;1.80;;;;;;;16.62;56.74;100867.16;1087413;54;21069;-80
2021/10/07 12:16:22;;;;;;;4.22;1.75;;;;;;;16.67;56.58;100854.84;1087497;54;20037;-80
2021/10/07 12:17:24;;;;;;;4.25;2.03;;;;;;;16.78;56.50;100858.25;1088070;39;20714;-82
2021/10/07 12:18:30;;;;;;;4.10;1.88;;;;;;;16.80;55.80;100853.53;1087583;54;20038;-84
2021/10/07 12:19:32;;;;;;;5.90;1.98;;;;;;;16.74;55.64;100860.44;1087635;54;20061;-82
2021/10/07 12:20:36;;;;;;;4.95;2.38;;;;;;;16.79;55.72;100862.66;1087631;54;20064;-80
2021/10/07 12:21:42;;;;;;;6.45;2.97;;;;;;;16.79;55.90;100859.94;1087453;54;20041;-80
2021/10/07 12:22:44;;;;;;;5.80;2.70;;;;;;;16.74;55.86;100862.28;1087676;54;20062;-80
2021/10/07 12:23:53;;;;;;;5.50;2.58;;;;;;;16.79;55.65;100858.09;1087615;54;20078;-80
2021/10/07 12:25:00;;;;;;;11.43;9.00;;;;;;;16.81;55.67;100853.38;1087662;54;20038;-81
2021/10/07 12:26:07;;;;;;;9.50;7.22;;;;;;;16.84;55.67;100852.19;1087688;46;20068;-82
2021/10/07 12:27:11;;;;;;;8.95;6.03;;;;;;;16.87;55.75;100851.00;1087625;54;20034;-82
2021/10/07 12:28:17;;;;;;;9.95;7.53;;;;;;;16.87;55.34;100857.25;1087536;54;20034;-83
2021/10/07 12:29:24;;;;;;;9.85;6.20;;;;;;;16.84;55.33;100854.88;1087602;54;20710;-80
2021/10/07 12:30:25;;;;;;;8.05;3.47;;;;;;;16.75;54.98;100845.09;1087679;54;20034;-80
2021/10/07 12:31:31;;;;;;;4.60;2.88;;;;;;;16.81;55.05;100844.44;1088155;47;20042;-81
2021/10/07 12:32:33;;;;;;;4.22;2.22;;;;;;;16.80;54.79;100850.84;1088285;47;20034;-81
2021/10/07 12:33:37;;;;;;;4.43;2.15;;;;;;;16.84;54.19;100844.09;1087788;54;20037;-81
2021/10/07 12:34:40;;;;;;;4.78;1.70;;;;;;;16.77;52.81;100853.88;1087976;54;20082;-81
2021/10/07 12:36:00;;;;;;;4.47;2.15;;;;;;;16.85;51.75;100851.19;1087985;54;20030;-81
2021/10/07 12:37:07;;;;;;;5.05;2.00;;;;;;;16.83;52.37;100847.78;1087944;54;20030;-80
2021/10/07 12:38:09;;;;;;;3.78;1.52;;;;;;;16.93;52.58;100853.91;1087957;54;20034;-81
2021/10/07 12:39:26;;;;;;;3.60;1.50;;;;;;;16.98;51.67;100848.88;1087731;54;20036;-81
2021/10/07 12:40:28;;;;;;;2.97;1.35;;;;;;;17.00;52.09;100852.22;1087976;54;20030;-83
2021/10/07 12:41:41;;;;;;;4.65;1.80;;;;;;;16.83;51.53;100850.50;1087947;54;21010;-83
2021/10/07 12:42:46;;;;;;;4.43;2.00;;;;;;;16.75;52.41;100851.34;1087973;54;20053;-83
2021/10/07 12:43:58;;;;;;;4.88;1.70;;;;;;;16.72;52.47;100845.44;1088653;46;20041;-81
2021/10/07 12:45:03;;;;;;;5.25;2.45;;;;;;;16.75;52.85;100855.88;1087896;54;20034;-81
2021/10/07 12:46:08;;;;;;;4.13;1.90;;;;;;;16.66;53.47;100855.88;1089402;46;20057;-82
2021/10/07 12:47:17;;;;;;;3.50;1.70;;;;;;;16.68;53.56;100855.69;1087969;54;20041;-82
2021/10/07 12:48:19;;;;;;;7.57;2.33;;;;;;;16.76;53.16;100852.19;1087945;54;20030;-82
2021/10/07 12:49:37;;;;;;;4.30;1.80;;;;;;;16.71;53.64;100854.53;1087890;54;20031;-82
2021/10/07 12:50:39;;;;;;;5.72;2.60;;;;;;;16.64;53.84;100849.78;1087535;54;20043;-79
2021/10/07 12:51:48;;;;;;;4.50;2.10;;;;;;;16.53;54.02;100852.81;1088139;46;20054;-81
2021/10/07 12:53:00;;;;;;;4.55;2.25;;;;;;;16.56;53.87;100857.03;1087908;54;20725;-81
2021/10/07 12:54:13;;;;;;;5.90;2.00;;;;;;;16.60;53.71;100859.22;1087910;54;20038;-81
2021/10/07 12:55:18;;;;;;;3.78;2.15;;;;;;;16.51;53.98;100860.22;1088730;46;20064;-84
2021/10/07 12:56:29;;;;;;;8.13;2.53;;;;;;;16.40;53.82;100857.81;1088601;46;20034;-82